Time;durP1;ratioP1;P1;durP2;ratioP2;P2;SDS_P1;SDS_P2;PMS_P1;PMS_P2;Temp;Humidity;BMP_temperature;BMP_pressure;BME280_temperature;BME280_humidity;BME280_pressure;Samples;Min_cycle;Max_cycle;Signal;HPM_P1;HPM_P2
2022/06/19 00:01:48;;;;;;;267.17;257.40;;;19.60;99.90;;;;;;5037816;28;20455;-81
2022/06/19 00:07:05;;;;;;;246.87;237.63;;;19.50;99.90;;;;;;5112621;22;20493;-87
2022/06/19 00:09:44;;;;;;;306.77;294.97;;;19.40;99.90;;;;;;5089318;28;20483;-87
2022/06/19 00:12:42;;;;;;;324.17;311.17;;;19.40;99.90;;;;;;5090452;28;20456;-87
2022/06/19 00:15:16;;;;;;;359.50;346.10;;;19.20;99.90;;;;;;5089790;28;20465;-86
2022/06/19 00:17:46;;;;;;;362.20;348.07;;;19.30;99.90;;;;;;5090050;28;20455;-87
2022/06/19 00:20:30;;;;;;;355.23;340.93;;;19.30;99.90;;;;;;5088365;28;20475;-87
2022/06/19 00:23:04;;;;;;;335.77;322.77;;;19.30;99.90;;;;;;5089049;28;20487;-87
2022/06/19 00:25:48;;;;;;;296.00;284.97;;;19.30;99.90;;;;;;5086595;28;20474;-86
2022/06/19 00:28:26;;;;;;;313.27;301.27;;;19.30;99.90;;;;;;5071183;28;20517;-85
2022/06/19 00:31:16;;;;;;;353.60;339.80;;;19.50;99.90;;;;;;5089150;28;20458;-87
2022/06/19 00:33:57;;;;;;;321.60;309.63;;;19.40;99.90;;;;;;5089356;28;20918;-86
2022/06/19 00:36:32;;;;;;;307.70;296.43;;;19.40;99.90;;;;;;5069803;28;20445;-87
2022/06/19 00:39:12;;;;;;;327.10;314.80;;;19.30;99.90;;;;;;5069651;28;20468;-87
2022/06/19 00:41:46;;;;;;;339.33;326.70;;;19.40;99.90;;;;;;5087162;28;20533;-85
2022/06/19 00:44:32;;;;;;;342.03;329.33;;;19.30;99.90;;;;;;5085790;28;20567;-86
2022/06/19 00:47:14;;;;;;;346.20;333.53;;;19.30;99.90;;;;;;5086161;28;20460;-87
2022/06/19 00:49:58;;;;;;;343.87;330.67;;;19.30;99.90;;;;;;5083153;28;20462;-87
2022/06/19 00:52:47;;;;;;;313.27;301.77;;;19.20;99.90;;;;;;5088113;28;20440;-87
2022/06/19 00:55:23;;;;;;;362.53;348.43;;;19.30;99.90;;;;;;5089343;28;20468;-86
2022/06/19 00:58:00;;;;;;;330.27;317.60;;;19.30;99.90;;;;;;5085887;28;20452;-86
2022/06/19 01:00:36;;;;;;;391.73;376.47;;;19.30;99.90;;;;;;5088253;28;20455;-87
2022/06/19 01:03:17;;;;;;;395.20;378.83;;;19.20;99.90;;;;;;5085144;28;20457;-87
2022/06/19 01:05:59;;;;;;;345.70;331.60;;;19.30;99.90;;;;;;5071971;28;20474;-88
2022/06/19 01:08:37;;;;;;;290.03;278.80;;;19.10;99.90;;;;;;5082432;28;20443;-87
2022/06/19 01:11:17;;;;;;;313.73;301.87;;;19.10;99.90;;;;;;5088762;28;20440;-87
2022/06/19 01:13:58;;;;;;;362.00;347.67;;;19.10;99.90;;;;;;5071097;28;20450;-87
2022/06/19 01:16:38;;;;;;;316.87;305.20;;;19.00;99.90;;;;;;5089278;28;20442;-85
2022/06/19 01:19:24;;;;;;;332.13;319.63;;;18.90;99.90;;;;;;5087555;28;20487;-86
2022/06/19 01:22:02;;;;;;;367.87;353.50;;;18.80;99.90;;;;;;5089561;28;20452;-86
2022/06/19 01:24:47;;;;;;;403.50;386.80;;;18.80;99.90;;;;;;5089344;28;20467;-87
2022/06/19 01:30:33;;;;;;;436.80;418.50;;;18.90;99.90;;;;;;5088931;28;20424;-86
2022/06/19 01:33:21;;;;;;;394.73;378.73;;;18.90;99.90;;;;;;5087977;28;20478;-86
2022/06/19 01:36:02;;;;;;;394.50;378.07;;;18.70;99.90;;;;;;5088105;28;20463;-88
2022/06/19 01:38:31;;;;;;;333.93;321.27;;;18.90;99.90;;;;;;5068527;28;20446;-86
2022/06/19 01:41:12;;;;;;;288.63;277.03;;;18.80;99.90;;;;;;5086885;28;20448;-88
2022/06/19 01:44:05;;;;;;;298.00;286.00;;;18.80;99.90;;;;;;5087023;28;20480;-88
2022/06/19 01:46:42;;;;;;;390.50;374.77;;;18.80;99.90;;;;;;5088647;28;20466;-88
2022/06/19 01:49:17;;;;;;;263.77;254.57;;;18.90;99.90;;;;;;5084399;28;20834;-84
2022/06/19 01:51:57;;;;;;;318.20;306.70;;;18.60;99.90;;;;;;5086571;28;20448;-85
2022/06/19 01:54:42;;;;;;;409.97;394.50;;;18.40;99.90;;;;;;5087633;28;20498;-84
2022/06/19 01:57:19;;;;;;;403.57;387.77;;;18.40;99.90;;;;;;5088727;28;20839;-86
2022/06/19 02:02:48;;;;;;;540.77;515.77;;;18.40;99.90;;;;;;5088364;28;20450;-86
2022/06/19 02:05:27;;;;;;;479.33;458.33;;;18.30;99.90;;;;;;5088448;28;20509;-87
2022/06/19 02:08:05;;;;;;;491.60;470.70;;;18.20;99.90;;;;;;5087351;28;20506;-86
2022/06/19 02:10:48;;;;;;;416.13;398.77;;;18.30;99.90;;;;;;5088755;28;20461;-85
2022/06/19 02:13:23;;;;;;;524.00;500.63;;;18.40;99.90;;;;;;5065673;28;20463;-85
2022/06/19 02:16:11;;;;;;;384.47;370.10;;;18.30;99.90;;;;;;5072033;28;20473;-84
2022/06/19 02:18:53;;;;;;;634.27;603.30;;;18.10;99.90;;;;;;5091081;28;20458;-86
2022/06/19 02:21:38;;;;;;;699.07;662.50;;;18.10;99.90;;;;;;5091874;28;20469;-86
2022/06/19 02:24:19;;;;;;;582.70;555.70;;;18.40;99.90;;;;;;5091722;28;20454;-85
2022/06/19 02:27:00;;;;;;;587.97;561.40;;;18.60;99.90;;;;;;5089317;28;20502;-88
2022/06/19 02:29:37;;;;;;;705.67;669.17;;;18.60;99.90;;;;;;5090401;28;20461;-86
2022/06/19 02:32:18;;;;;;;735.17;696.70;;;18.60;99.90;;;;;;5091428;28;20458;-86
2022/06/19 02:35:01;;;;;;;774.63;732.63;;;18.60;99.90;;;;;;5091981;28;20509;-84
2022/06/19 02:37:50;;;;;;;807.80;762.80;;;18.40;99.90;;;;;;5092651;28;20501;-87
2022/06/19 02:40:41;;;;;;;730.33;693.87;;;18.40;99.90;;;;;;5093018;28;20450;-87
2022/06/19 02:43:14;;;;;;;764.53;723.23;;;18.50;99.90;;;;;;5092735;28;20461;-87
2022/06/19 02:45:49;;;;;;;655.13;622.00;;;18.50;99.90;;;;;;5088527;28;20486;-88
2022/06/19 02:48:33;;;;;;;342.53;330.57;;;18.50;99.90;;;;;;5093760;28;20453;-86
2022/06/19 02:51:31;;;;;;;150.70;145.53;;;18.30;99.90;;;;;;5073636;28;20507;-87
2022/06/19 02:54:52;;;;;;;199.60;192.80;;;18.10;99.90;;;;;;5075790;28;20445;-84
2022/06/19 02:57:19;;;;;;;252.07;243.57;;;17.90;99.90;;;;;;5068751;28;20989;-83
2022/06/19 02:59:46;;;;;;;281.37;272.43;;;17.70;99.90;;;;;;5072058;28;20452;-80
2022/06/19 03:02:13;;;;;;;317.57;306.03;;;17.50;99.90;;;;;;5087566;28;20452;-82
2022/06/19 03:04:45;;;;;;;131.20;126.73;;;17.50;99.90;;;;;;5088108;28;20476;-83
2022/06/19 03:07:11;;;;;;;129.07;124.63;;;17.30;99.90;;;;;;5084809;28;20486;-82
2022/06/19 03:09:38;;;;;;;196.53;190.33;;;17.40;99.90;;;;;;5083327;28;20457;-83
2022/06/19 03:12:07;;;;;;;203.20;196.00;;;17.20;99.90;;;;;;5084589;28;20447;-84
2022/06/19 03:14:33;;;;;;;251.83;243.67;;;17.10;99.90;;;;;;5087674;28;20472;-84
2022/06/19 03:17:00;;;;;;;296.20;286.73;;;17.00;99.90;;;;;;5085641;28;20451;-82
2022/06/19 03:19:27;;;;;;;261.27;252.70;;;16.90;99.90;;;;;;5086660;28;20450;-83
2022/06/19 03:21:55;;;;;;;221.60;214.77;;;16.80;99.90;;;;;;5089979;28;20452;-83
2022/06/19 03:24:23;;;;;;;252.70;244.73;;;16.80;99.90;;;;;;5088169;28;21053;-83
2022/06/19 03:26:49;;;;;;;172.60;167.00;;;16.70;99.90;;;;;;5088995;28;20511;-83
2022/06/19 03:29:18;;;;;;;145.47;140.63;;;16.60;99.90;;;;;;5089191;28;20465;-84
2022/06/19 03:31:45;;;;;;;117.77;113.33;;;16.60;99.90;;;;;;5089294;28;20542;-83
2022/06/19 03:34:11;;;;;;;129.23;124.83;;;16.50;99.90;;;;;;5085662;28;21032;-83
2022/06/19 03:36:38;;;;;;;122.43;117.50;;;16.40;99.90;;;;;;5089683;28;20448;-84
2022/06/19 03:39:06;;;;;;;85.50;82.17;;;16.40;99.90;;;;;;5087634;28;20448;-84
2022/06/19 03:41:33;;;;;;;73.67;70.93;;;16.20;99.90;;;;;;5088329;28;20462;-84
2022/06/19 03:44:00;;;;;;;108.63;104.23;;;16.40;99.90;;;;;;5090698;28;20453;-84
2022/06/19 03:46:29;;;;;;;80.87;77.20;;;16.30;99.90;;;;;;5090186;28;20549;-85
2022/06/19 03:49:04;;;;;;;41.30;39.23;;;16.20;99.90;;;;;;5087808;28;20455;-85
2022/06/19 03:51:44;;;;;;;54.07;51.47;;;16.30;99.90;;;;;;5088810;28;20451;-85
2022/06/19 03:54:12;;;;;;;26.57;24.67;;;16.20;99.90;;;;;;5088579;28;20471;-83
2022/06/19 03:56:56;;;;;;;39.63;37.53;;;16.10;99.90;;;;;;5086687;28;20814;-85
2022/06/19 03:59:40;;;;;;;17.33;15.73;;;16.10;99.90;;;;;;5087780;28;20446;-86
2022/06/19 04:02:09;;;;;;;26.33;23.97;;;16.00;99.90;;;;;;5087607;28;20512;-87
2022/06/19 04:04:36;;;;;;;16.87;15.50;;;15.90;99.90;;;;;;5078055;28;20475;-87
2022/06/19 04:10:35;;;;;;;15.93;8.40;;;16.00;99.90;;;;;;5072241;28;20457;-84
2022/06/19 04:13:26;;;;;;;16.70;7.90;;;15.70;99.90;;;;;;5079358;28;20927;-84
2022/06/19 04:16:07;;;;;;;17.07;5.90;;;15.80;98.20;;;;;;5088895;28;20497;-85
2022/06/19 04:18:35;;;;;;;8.93;6.07;;;15.60;97.60;;;;;;5071746;28;20427;-87
2022/06/19 04:21:03;;;;;;;14.40;4.60;;;15.50;96.80;;;;;;5089296;28;20431;-85
2022/06/19 04:23:36;;;;;;;11.63;4.70;;;15.50;96.60;;;;;;5091064;28;20446;-85
2022/06/19 04:26:12;;;;;;;14.33;2.77;;;15.40;95.10;;;;;;5090046;28;20466;-87
2022/06/19 04:28:44;;;;;;;5.80;2.70;;;15.40;93.20;;;;;;5089834;28;20472;-85
2022/06/19 04:31:11;;;;;;;11.10;2.80;;;15.40;93.20;;;;;;5072062;28;20457;-87
2022/06/19 04:33:42;;;;;;;5.57;2.50;;;15.40;92.80;;;;;;5088121;28;20548;-87
2022/06/19 04:36:14;;;;;;;7.23;2.20;;;15.30;91.30;;;;;;5088314;28;20475;-86
2022/06/19 04:38:43;;;;;;;5.13;2.30;;;15.30;90.70;;;;;;5088925;28;20439;-87
2022/06/19 04:41:15;;;;;;;8.27;2.50;;;15.20;90.20;;;;;;5089591;28;20480;-87
2022/06/19 04:43:42;;;;;;;11.70;3.03;;;15.30;90.00;;;;;;5088986;28;20447;-87
2022/06/19 04:46:10;;;;;;;5.43;1.80;;;15.30;87.20;;;;;;5087933;28;20493;-85
2022/06/19 04:48:38;;;;;;;10.63;3.23;;;15.30;85.10;;;;;;5085806;28;20450;-87
2022/06/19 04:51:14;;;;;;;7.90;2.83;;;15.30;80.80;;;;;;5087284;28;20518;-87
2022/06/19 04:53:42;;;;;;;10.03;2.20;;;15.30;81.80;;;;;;5087923;28;20450;-86
2022/06/19 04:56:18;;;;;;;6.27;2.07;;;15.40;80.20;;;;;;5085560;28;20474;-87
2022/06/19 04:58:51;;;;;;;10.30;2.20;;;15.30;79.30;;;;;;5088468;28;20477;-86
2022/06/19 05:01:30;;;;;;;11.40;2.70;;;15.50;79.50;;;;;;5088859;28;20454;-87
2022/06/19 05:04:01;;;;;;;9.73;2.40;;;15.60;81.20;;;;;;5086981;28;20451;-88
2022/06/19 05:06:32;;;;;;;10.87;3.60;;;15.60;78.90;;;;;;5088618;28;20470;-89
2022/06/19 05:09:09;;;;;;;17.13;3.53;;;15.80;77.20;;;;;;5087805;28;20458;-87
2022/06/19 05:11:38;;;;;;;10.90;2.67;;;15.70;75.40;;;;;;5065409;28;20451;-87
2022/06/19 05:14:07;;;;;;;13.73;3.30;;;15.70;76.10;;;;;;5078826;28;20497;-86
2022/06/19 05:45:43;;;;;;;7.27;2.23;;;17.50;58.20;;;;;;4992053;28;20457;-85
2022/06/19 06:07:23;;;;;;;11.20;2.23;;;18.80;46.60;;;;;;5084125;28;20572;-86
2022/06/19 06:09:50;;;;;;;9.70;2.00;;;19.40;42.80;;;;;;5085402;28;20454;-86
2022/06/19 06:12:17;;;;;;;8.63;2.70;;;19.70;44.00;;;;;;5087218;28;20443;-85
2022/06/19 06:14:43;;;;;;;14.60;2.67;;;19.80;38.90;;;;;;5084822;28;20446;-85
2022/06/19 06:17:10;;;;;;;9.53;2.50;;;20.40;38.50;;;;;;5065655;28;20454;-86
2022/06/19 06:19:40;;;;;;;15.43;2.43;;;20.90;37.50;;;;;;5066075;28;20458;-86
2022/06/19 06:22:07;;;;;;;9.23;2.77;;;20.70;35.90;;;;;;5065114;28;20563;-86
2022/06/19 06:24:36;;;;;;;10.87;2.73;;;20.70;34.30;;;;;;5065250;28;20489;-87
2022/06/19 06:27:06;;;;;;;12.50;3.10;;;21.00;33.00;;;;;;5066336;28;20483;-86
2022/06/19 06:29:34;;;;;;;9.77;2.77;;;21.00;33.70;;;;;;5065315;28;20591;-87
2022/06/19 06:32:14;;;;;;;8.93;2.77;;;21.40;32.80;;;;;;5062990;28;20485;-86
2022/06/19 06:34:41;;;;;;;9.70;2.50;;;21.60;35.40;;;;;;5059095;28;20454;-86
2022/06/19 06:37:08;;;;;;;11.17;2.40;;;22.20;30.00;;;;;;5061460;28;20472;-84
2022/06/19 06:39:41;;;;;;;12.43;3.27;;;22.30;29.00;;;;;;5055543;28;20959;-86
2022/06/19 06:42:11;;;;;;;10.60;2.47;;;22.60;27.20;;;;;;5056235;28;20461;-85
2022/06/19 06:44:41;;;;;;;11.57;3.13;;;22.70;26.70;;;;;;5055512;28;20552;-85
2022/06/19 06:47:08;;;;;;;12.10;2.30;;;22.70;28.10;;;;;;5056570;28;20470;-85
2022/06/19 06:49:39;;;;;;;6.27;2.23;;;23.20;25.10;;;;;;5055671;28;20544;-86
2022/06/19 06:52:08;;;;;;;10.23;2.90;;;23.30;23.50;;;;;;5054443;28;20453;-85
2022/06/19 06:54:37;;;;;;;12.83;3.37;;;23.40;24.50;;;;;;5058538;28;20469;-86
2022/06/19 06:57:38;;;;;;;11.40;3.47;;;23.30;23.30;;;;;;5058010;28;20535;-85
2022/06/19 07:00:07;;;;;;;15.87;3.67;;;23.60;22.30;;;;;;5057739;28;20974;-84
2022/06/19 07:02:34;;;;;;;8.40;2.53;;;22.80;23.50;;;;;;5059453;28;20457;-86
2022/06/19 07:05:01;;;;;;;12.63;3.13;;;22.40;24.50;;;;;;5057946;28;20479;-84
2022/06/19 07:07:28;;;;;;;9.47;3.13;;;22.20;24.80;;;;;;5058330;28;20484;-87
2022/06/19 07:09:56;;;;;;;11.80;3.30;;;22.10;27.60;;;;;;5058306;28;20938;-85
2022/06/19 07:12:24;;;;;;;16.43;3.03;;;21.70;26.20;;;;;;5057621;28;20454;-85
2022/06/19 07:14:51;;;;;;;12.13;3.40;;;21.60;27.70;;;;;;5061910;28;20447;-82
2022/06/19 07:17:18;;;;;;;11.50;3.50;;;21.60;28.20;;;;;;5068572;28;20422;-82
2022/06/19 07:19:44;;;;;;;18.23;3.20;;;21.70;27.20;;;;;;5071194;28;20450;-83
2022/06/19 07:22:12;;;;;;;11.53;2.43;;;21.50;25.90;;;;;;5070010;28;20461;-85
2022/06/19 07:24:39;;;;;;;12.30;3.10;;;21.00;27.70;;;;;;5070979;28;20454;-85
2022/06/19 07:27:07;;;;;;;7.90;2.33;;;20.60;26.10;;;;;;5070071;28;20476;-83
2022/06/19 07:29:34;;;;;;;11.30;2.67;;;20.10;26.10;;;;;;5069966;28;20534;-84
2022/06/19 07:32:01;;;;;;;20.37;3.33;;;20.00;27.00;;;;;;5071739;28;20467;-85
2022/06/19 07:34:28;;;;;;;9.57;2.90;;;20.30;26.20;;;;;;5073032;28;20458;-84
2022/06/19 07:36:54;;;;;;;11.83;2.80;;;19.80;26.20;;;;;;5072280;28;20515;-85
2022/06/19 07:39:21;;;;;;;14.10;3.17;;;19.40;26.60;;;;;;5071492;28;20454;-84
2022/06/19 07:41:48;;;;;;;6.10;1.80;;;19.60;28.10;;;;;;5034930;28;20463;-84
2022/06/19 07:44:16;;;;;;;10.80;2.57;;;19.90;27.00;;;;;;4991689;28;20452;-85
2022/06/19 07:52:08;;;;;;;8.83;1.97;;;20.30;24.80;;;;;;4991722;28;20444;-84
2022/06/19 07:54:35;;;;;;;8.07;2.37;;;20.30;24.60;;;;;;4991640;28;20452;-84
2022/06/19 07:57:01;;;;;;;9.67;2.07;;;20.10;24.10;;;;;;4991990;28;20456;-85
2022/06/19 07:59:29;;;;;;;7.90;2.50;;;20.30;23.70;;;;;;4991356;28;20450;-84
2022/06/19 08:01:56;;;;;;;22.70;3.07;;;20.00;24.70;;;;;;4994668;28;20460;-84
2022/06/19 08:04:23;;;;;;;11.93;2.67;;;20.20;23.60;;;;;;4991571;28;20468;-84
2022/06/19 08:06:50;;;;;;;11.77;2.37;;;20.00;24.60;;;;;;4992375;28;20493;-85
2022/06/19 08:09:17;;;;;;;11.50;2.73;;;20.10;27.10;;;;;;4991778;28;20461;-85
2022/06/19 08:11:44;;;;;;;13.40;2.20;;;20.50;25.80;;;;;;4988888;28;20958;-82
2022/06/19 08:14:10;;;;;;;9.70;2.10;;;20.70;24.80;;;;;;4978094;28;20462;-82
2022/06/19 08:16:38;;;;;;;10.10;2.03;;;20.90;24.50;;;;;;4979661;28;20218;-82
2022/06/19 08:19:05;;;;;;;12.03;2.00;;;20.60;25.90;;;;;;4978655;28;20455;-82
2022/06/19 08:21:32;;;;;;;15.13;2.97;;;20.50;25.90;;;;;;4979273;28;20827;-82
2022/06/19 08:23:58;;;;;;;10.90;2.57;;;20.60;27.30;;;;;;4978656;28;20460;-82
2022/06/19 08:26:25;;;;;;;8.33;2.03;;;20.60;24.30;;;;;;4979115;28;20479;-82
2022/06/19 08:28:55;;;;;;;15.77;2.60;;;20.80;24.40;;;;;;4978288;28;20483;-82
2022/06/19 08:31:22;;;;;;;7.10;2.10;;;20.70;23.60;;;;;;4979307;28;20491;-82
2022/06/19 08:33:50;;;;;;;13.73;2.20;;;20.80;25.10;;;;;;4979232;28;20454;-82
2022/06/19 08:36:17;;;;;;;13.43;3.47;;;20.90;23.60;;;;;;4978587;28;20479;-82
2022/06/19 08:38:48;;;;;;;5.93;1.80;;;20.80;22.30;;;;;;4978523;28;20452;-82
2022/06/19 08:41:30;;;;;;;10.70;2.07;;;20.50;22.30;;;;;;4979092;28;20460;-82
2022/06/19 08:44:31;;;;;;;10.03;2.20;;;21.10;21.40;;;;;;4978604;28;20435;-82
2022/06/19 08:47:12;;;;;;;9.73;1.40;;;21.10;20.50;;;;;;4979403;28;20571;-82
2022/06/19 08:49:53;;;;;;;6.00;2.07;;;21.20;20.60;;;;;;4977997;28;20462;-82
2022/06/19 08:52:31;;;;;;;9.90;2.40;;;21.60;20.80;;;;;;4978589;28;20837;-82
2022/06/19 08:55:08;;;;;;;9.27;2.57;;;21.90;20.80;;;;;;4978475;28;20456;-82
2022/06/19 08:57:43;;;;;;;12.80;2.30;;;21.80;19.10;;;;;;4978578;28;20464;-82
2022/06/19 09:00:16;;;;;;;6.57;1.87;;;21.60;20.80;;;;;;4978057;28;20461;-82
2022/06/19 09:02:55;;;;;;;8.20;2.23;;;21.70;17.00;;;;;;4978047;28;20491;-82
2022/06/19 09:05:36;;;;;;;9.93;2.50;;;21.20;19.30;;;;;;4978367;28;20488;-82
2022/06/19 09:08:39;;;;;;;10.63;2.57;;;21.20;19.40;;;;;;4978585;28;20464;-81
2022/06/19 09:11:22;;;;;;;8.77;2.20;;;21.30;19.90;;;;;;4977020;28;20512;-81
2022/06/19 09:14:13;;;;;;;14.00;2.60;;;21.10;18.90;;;;;;4979482;28;20464;-81
2022/06/19 09:16:41;;;;;;;7.83;2.83;;;21.20;19.00;;;;;;4978245;28;20501;-83
2022/06/19 09:19:14;;;;;;;12.70;2.70;;;21.60;17.80;;;;;;4977463;28;20454;-83
2022/06/19 09:21:59;;;;;;;12.83;2.20;;;21.90;19.00;;;;;;4978225;28;20483;-83
2022/06/19 09:24:41;;;;;;;9.23;1.93;;;21.40;17.00;;;;;;4977321;28;20612;-83
2022/06/19 09:27:12;;;;;;;16.30;3.10;;;21.40;19.10;;;;;;4978357;28;20461;-83
2022/06/19 09:29:45;;;;;;;6.43;1.60;;;21.40;18.50;;;;;;4977615;28;20792;-83
2022/06/19 09:32:17;;;;;;;8.40;2.00;;;21.50;20.50;;;;;;4978276;28;20838;-83
2022/06/19 09:34:50;;;;;;;6.30;2.20;;;21.20;23.90;;;;;;4978182;28;20475;-83
2022/06/19 09:37:23;;;;;;;13.60;2.47;;;21.00;22.50;;;;;;4977636;28;20854;-83
2022/06/19 09:39:56;;;;;;;9.80;1.97;;;21.00;23.60;;;;;;4977400;28;20462;-83
2022/06/19 09:42:27;;;;;;;9.80;2.63;;;21.50;25.10;;;;;;4977974;28;20468;-83
2022/06/19 09:44:59;;;;;;;14.20;3.63;;;21.90;23.60;;;;;;4978348;28;20460;-83
2022/06/19 09:47:39;;;;;;;9.47;2.17;;;22.60;20.60;;;;;;4978451;28;20481;-83
2022/06/19 09:50:09;;;;;;;10.27;2.00;;;23.30;17.30;;;;;;4978035;28;20459;-83
2022/06/19 09:52:41;;;;;;;14.37;3.03;;;24.60;12.00;;;;;;4978533;28;20455;-84
2022/06/19 09:55:16;;;;;;;8.27;1.90;;;25.70;8.50;;;;;;4978742;28;20482;-84
2022/06/19 09:57:47;;;;;;;11.53;2.47;;;26.30;7.90;;;;;;4979110;28;20457;-82
2022/06/19 10:00:21;;;;;;;11.70;2.30;;;26.30;5.40;;;;;;4991132;28;20454;-83
2022/06/19 10:02:51;;;;;;;7.70;2.37;;;26.00;4.70;;;;;;4996115;28;20470;-83
2022/06/19 10:05:30;;;;;;;11.33;2.20;;;25.20;7.10;;;;;;4995372;28;20477;-84
2022/06/19 10:08:07;;;;;;;12.27;2.33;;;24.20;7.00;;;;;;4996027;28;20490;-83
2022/06/19 10:10:44;;;;;;;9.07;2.60;;;23.20;11.10;;;;;;4978050;28;20461;-83
2022/06/19 10:13:17;;;;;;;13.07;2.83;;;22.10;20.00;;;;;;4977792;28;20480;-83
2022/06/19 10:15:46;;;;;;;10.40;2.77;;;20.80;24.70;;;;;;4977456;28;20474;-83
2022/06/19 10:18:17;;;;;;;7.93;2.70;;;20.80;29.10;;;;;;4977274;28;20459;-83
2022/06/19 10:20:51;;;;;;;9.93;2.37;;;21.10;27.80;;;;;;4977368;28;20458;-83
2022/06/19 10:23:28;;;;;;;14.53;2.53;;;21.10;27.80;;;;;;4977062;28;20459;-83
2022/06/19 10:26:09;;;;;;;8.67;2.53;;;21.50;28.10;;;;;;4977469;28;20476;-83
2022/06/19 10:29:07;;;;;;;10.60;3.07;;;21.80;26.20;;;;;;4976785;28;20486;-83
2022/06/19 10:31:47;;;;;;;13.43;3.60;;;21.60;27.20;;;;;;4966132;28;20454;-83
2022/06/19 10:34:25;;;;;;;8.07;2.30;;;21.90;28.60;;;;;;4978453;28;20631;-83
2022/06/19 10:36:59;;;;;;;10.00;1.87;;;22.30;25.70;;;;;;4982209;28;20830;-82
2022/06/19 10:39:39;;;;;;;16.63;2.53;;;22.90;27.70;;;;;;4981214;28;20834;-80
2022/06/19 10:42:18;;;;;;;7.70;2.40;;;23.20;25.40;;;;;;4981402;28;20454;-81
2022/06/19 10:45:01;;;;;;;12.93;2.63;;;23.50;20.40;;;;;;4981789;28;20437;-82
2022/06/19 10:47:37;;;;;;;10.37;2.80;;;23.70;18.10;;;;;;4981873;28;20484;-82
2022/06/19 10:50:14;;;;;;;11.57;2.50;;;23.90;17.70;;;;;;4982162;28;20468;-83
2022/06/19 10:52:54;;;;;;;12.43;2.60;;;24.80;15.60;;;;;;4983262;28;20458;-85
2022/06/19 10:55:30;;;;;;;10.73;2.90;;;24.80;14.90;;;;;;4984375;28;20855;-86
2022/06/19 10:58:09;;;;;;;9.50;2.93;;;25.60;12.30;;;;;;4984865;28;20454;-85
2022/06/19 11:00:37;;;;;;;7.50;2.73;;;25.80;9.30;;;;;;4983409;28;20458;-85
2022/06/19 11:06:03;;;;;;;8.20;2.60;;;25.90;10.50;;;;;;4984160;28;20514;-86
2022/06/19 11:08:34;;;;;;;11.37;3.20;;;25.60;7.70;;;;;;4982433;28;20485;-85
2022/06/19 11:11:03;;;;;;;8.53;2.90;;;25.60;8.50;;;;;;4983415;28;20837;-85
2022/06/19 11:13:56;;;;;;;9.30;2.70;;;26.60;4.90;;;;;;4984333;28;20827;-85
2022/06/19 11:16:23;;;;;;;9.20;3.37;;;27.60;2.50;;;;;;4983978;28;20445;-85
2022/06/19 11:18:52;;;;;;;11.90;3.53;;;27.90;1.90;;;;;;4982713;28;20888;-84
2022/06/19 11:21:22;;;;;;;11.80;3.90;;;28.00;1.00;;;;;;4983747;28;20454;-85
2022/06/19 11:23:54;;;;;;;13.83;2.90;;;27.70;1.00;;;;;;4982176;28;20450;-85
2022/06/19 11:26:26;;;;;;;13.90;3.57;;;27.70;1.00;;;;;;4983057;28;20475;-84
2022/06/19 11:28:57;;;;;;;11.77;3.53;;;26.70;1.20;;;;;;4982218;28;20478;-85
2022/06/19 11:31:27;;;;;;;12.87;3.80;;;26.10;1.00;;;;;;4962269;28;20455;-84
2022/06/19 11:33:57;;;;;;;10.47;4.00;;;25.90;5.20;;;;;;4962911;28;20463;-84
2022/06/19 11:36:35;;;;;;;9.87;2.97;;;25.20;8.00;;;;;;4962520;28;20479;-84
2022/06/19 11:39:23;;;;;;;11.17;2.80;;;24.40;10.00;;;;;;4961437;28;20463;-84
2022/06/19 11:41:51;;;;;;;13.43;3.70;;;23.80;11.40;;;;;;4961557;28;20452;-84
2022/06/19 11:44:20;;;;;;;11.97;3.33;;;23.70;13.50;;;;;;4960139;28;20466;-84
2022/06/19 11:46:51;;;;;;;12.60;3.80;;;24.10;11.50;;;;;;4962095;28;20464;-84
2022/06/19 11:49:25;;;;;;;11.47;3.07;;;24.30;11.10;;;;;;4961193;28;20513;-85
2022/06/19 11:51:53;;;;;;;13.57;3.40;;;25.00;10.30;;;;;;4963299;28;20456;-86
2022/06/19 11:54:25;;;;;;;11.97;4.03;;;25.40;9.70;;;;;;4963243;28;20455;-85
2022/06/19 11:56:54;;;;;;;11.10;3.00;;;25.50;8.40;;;;;;4961961;28;20476;-85
2022/06/19 11:59:26;;;;;;;10.03;3.03;;;24.80;8.60;;;;;;4967214;28;20455;-85
2022/06/19 12:01:53;;;;;;;7.60;2.30;;;24.80;9.40;;;;;;4970087;28;20426;-84
2022/06/19 12:04:28;;;;;;;12.17;2.80;;;24.20;9.70;;;;;;4969194;28;20456;-84
2022/06/19 12:09:56;;;;;;;7.43;2.40;;;24.10;11.40;;;;;;4993291;28;21020;-86
2022/06/19 12:26:10;;;;;;;10.63;2.27;;;23.80;13.20;;;;;;4859756;29;20452;-86
2022/06/19 12:28:44;;;;;;;20.43;4.40;;;24.70;11.80;;;;;;4867079;29;21191;-81
2022/06/19 12:31:15;;;;;;;11.30;2.23;;;25.00;8.70;;;;;;4897503;29;20463;-80
2022/06/19 14:36:23;;;;;;;;;;;;;;;;;;;;;
2022/06/19 14:39:07;;;;;;;10.87;2.13;;;25.40;6.70;;;;;;4888697;29;20564;-84
2022/06/19 14:42:08;;;;;;;;;;;;;;;;;;;;;
2022/06/19 15:08:00;;;;;;;5.00;1.00;;;25.10;9.20;;;;;;5247742;23;20470;-84
2022/06/19 15:10:30;;;;;;;7.57;1.83;;;24.50;11.30;;;;;;4981930;28;20827;-82
2022/06/19 15:13:18;;;;;;;6.53;1.43;;;24.30;10.90;;;;;;4982306;28;20478;-82
2022/06/19 15:15:50;;;;;;;9.97;2.00;;;24.20;11.50;;;;;;4982983;28;20474;-83
2022/06/19 15:18:21;;;;;;;6.80;1.73;;;24.00;12.50;;;;;;4982278;28;20478;-81
2022/06/19 15:21:09;;;;;;;5.43;1.90;;;23.30;13.40;;;;;;4982661;28;20479;-84
2022/06/19 15:23:42;;;;;;;6.77;1.40;;;22.40;15.30;;;;;;4985646;28;20928;-84
2022/06/19 15:26:42;;;;;;;10.47;2.70;;;22.00;18.10;;;;;;4986614;28;20487;-82
2022/06/19 15:29:37;;;;;;;6.60;1.80;;;21.80;17.10;;;;;;4983494;28;20448;-84
2022/06/19 15:32:37;;;;;;;6.63;1.40;;;21.90;18.40;;;;;;4987218;28;20837;-82
2022/06/19 15:35:36;;;;;;;5.50;1.50;;;21.70;18.50;;;;;;4986358;28;20437;-84
2022/06/19 15:38:28;;;;;;;6.20;1.83;;;21.30;19.80;;;;;;4987591;28;20439;-83
2022/06/19 15:40:56;;;;;;;10.20;3.10;;;21.20;20.60;;;;;;4987098;28;20518;-83
2022/06/19 15:43:35;;;;;;;7.50;2.10;;;21.60;20.80;;;;;;4987694;28;20466;-83
2022/06/19 15:46:19;;;;;;;7.22;1.88;;;21.80;21.00;;;;;;4986570;28;20464;-81
2022/06/19 15:48:56;;;;;;;5.80;1.87;;;22.00;20.10;;;;;;4988424;28;20199;-85
2022/06/19 15:51:37;;;;;;;8.10;2.20;;;21.90;19.20;;;;;;4987111;28;20894;-84
2022/06/19 15:54:10;;;;;;;10.23;2.27;;;22.20;18.90;;;;;;4985370;28;20484;-84
2022/06/19 15:59:36;;;;;;;7.93;2.17;;;23.20;14.50;;;;;;4983618;28;20497;-84
2022/06/19 16:02:18;;;;;;;6.10;1.73;;;23.20;14.90;;;;;;4986318;28;20497;-83
2022/06/19 16:04:52;;;;;;;6.80;1.73;;;23.30;14.60;;;;;;4986892;28;20455;-84
2022/06/19 16:07:32;;;;;;;5.77;1.47;;;23.40;14.60;;;;;;4986546;28;20486;-84
2022/06/19 16:10:49;;;;;;;7.17;1.63;;;23.20;13.50;;;;;;4986371;28;20541;-84
2022/06/19 16:13:29;;;;;;;10.52;2.30;;;23.70;14.80;;;;;;4975021;28;20823;-79
2022/06/19 16:16:23;;;;;;;6.43;1.53;;;24.30;10.60;;;;;;4976188;28;20704;-79
2022/06/19 16:19:16;;;;;;;5.10;1.30;;;24.00;11.20;;;;;;4952716;28;20451;-80
2022/06/19 16:21:59;;;;;;;7.67;1.80;;;23.80;13.00;;;;;;4975248;28;20459;-79
2022/06/19 16:24:29;;;;;;;6.57;2.13;;;24.20;10.90;;;;;;4975901;28;20829;-79
2022/06/19 16:26:59;;;;;;;10.93;2.37;;;24.90;9.80;;;;;;4976212;28;20841;-79
2022/06/19 16:29:27;;;;;;;7.20;1.47;;;24.90;8.10;;;;;;4975312;28;20821;-79
2022/06/19 16:31:57;;;;;;;7.87;1.40;;;25.60;7.90;;;;;;4976552;28;20926;-78
2022/06/19 16:34:26;;;;;;;5.90;1.80;;;25.70;4.90;;;;;;4976428;28;20457;-79
2022/06/19 16:45:30;;;;;;;6.73;1.90;;;27.70;1.70;;;;;;4976956;28;20535;-78
2022/06/19 16:48:04;;;;;;;5.20;1.57;;;27.00;1.30;;;;;;4976924;28;20525;-79
2022/06/19 16:50:50;;;;;;;7.33;1.93;;;26.10;2.50;;;;;;4972994;28;20463;-79
2022/06/19 16:53:18;;;;;;;7.57;1.90;;;25.50;5.50;;;;;;4976115;28;20459;-79
2022/06/19 16:55:55;;;;;;;7.40;2.20;;;24.90;7.90;;;;;;4978478;28;20479;-85
2022/06/19 16:58:26;;;;;;;11.20;2.47;;;24.50;7.80;;;;;;4983487;28;20505;-84
2022/06/19 17:07:19;;;;;;;7.53;2.03;;;23.50;11.30;;;;;;4960959;28;20488;-83
2022/06/19 17:10:16;;;;;;;;;;;;;;;;;;;;;
2022/06/19 17:16:35;;;;;;;7.13;2.60;;;22.00;15.50;;;;;;4886440;29;20490;-85
2022/06/19 17:26:40;;;;;;;6.30;1.70;;;21.60;20.90;;;;;;4842899;29;20486;-86
2022/06/19 17:32:55;;;;;;;9.10;3.73;;;21.80;20.90;;;;;;4961684;28;20463;-84
2022/06/19 17:35:39;;;;;;;6.83;2.37;;;21.90;20.30;;;;;;4985542;28;20473;-83
2022/06/19 17:38:15;;;;;;;8.70;2.77;;;21.90;21.10;;;;;;4986221;28;20458;-83
2022/06/19 17:40:53;;;;;;;10.23;3.37;;;21.70;19.90;;;;;;4985434;28;20492;-82